sensor_id;sensor_type;location;lat;lon;timestamp;temperature;humidity
8420;DHT22;4247;48.550;8.822;2023-02-28T00:00:24;-2.00;96.40
8420;DHT22;4247;48.550;8.822;2023-02-28T00:02:51;-2.00;96.40
8420;DHT22;4247;48.550;8.822;2023-02-28T00:05:20;-2.00;96.50
8420;DHT22;4247;48.550;8.822;2023-02-28T00:07:47;-1.90;96.40
8420;DHT22;4247;48.550;8.822;2023-02-28T00:10:18;-1.90;96.50
8420;DHT22;4247;48.550;8.822;2023-02-28T00:12:46;-1.90;96.50
8420;DHT22;4247;48.550;8.822;2023-02-28T00:15:13;-1.90;96.50
8420;DHT22;4247;48.550;8.822;2023-02-28T00:17:39;-1.80;96.70
8420;DHT22;4247;48.550;8.822;2023-02-28T00:20:07;-1.90;96.60
8420;DHT22;4247;48.550;8.822;2023-02-28T00:22:38;-1.90;96.70
8420;DHT22;4247;48.550;8.822;2023-02-28T00:25:05;-1.90;96.70
8420;DHT22;4247;48.550;8.822;2023-02-28T00:27:34;-1.80;96.80
8420;DHT22;4247;48.550;8.822;2023-02-28T00:30:01;-1.80;96.80
8420;DHT22;4247;48.550;8.822;2023-02-28T00:32:28;-1.80;96.80
8420;DHT22;4247;48.550;8.822;2023-02-28T00:34:55;-1.80;96.70
8420;DHT22;4247;48.550;8.822;2023-02-28T00:37:21;-1.80;96.70
8420;DHT22;4247;48.550;8.822;2023-02-28T00:39:48;-1.80;96.70
8420;DHT22;4247;48.550;8.822;2023-02-28T00:42:15;-1.80;96.70
8420;DHT22;4247;48.550;8.822;2023-02-28T00:44:43;-1.80;96.60
8420;DHT22;4247;48.550;8.822;2023-02-28T00:47:10;-1.80;96.70
8420;DHT22;4247;48.550;8.822;2023-02-28T00:49:36;-1.80;96.70
8420;DHT22;4247;48.550;8.822;2023-02-28T00:52:03;-1.80;96.70
8420;DHT22;4247;48.550;8.822;2023-02-28T00:54:30;-1.80;96.70
8420;DHT22;4247;48.550;8.822;2023-02-28T00:56:57;-1.80;96.80
8420;DHT22;4247;48.550;8.822;2023-02-28T00:59:23;-1.90;96.60
8420;DHT22;4247;48.550;8.822;2023-02-28T01:01:51;-1.90;96.70
8420;DHT22;4247;48.550;8.822;2023-02-28T01:04:18;-1.90;96.60
8420;DHT22;4247;48.550;8.822;2023-02-28T01:06:45;-1.90;96.70
8420;DHT22;4247;48.550;8.822;2023-02-28T01:09:12;-2.00;96.70
8420;DHT22;4247;48.550;8.822;2023-02-28T01:11:38;-2.00;97.20
8420;DHT22;4247;48.550;8.822;2023-02-28T01:14:08;-2.00;96.90
8420;DHT22;4247;48.550;8.822;2023-02-28T01:16:35;-2.00;97.00
8420;DHT22;4247;48.550;8.822;2023-02-28T01:19:03;-2.10;97.10
8420;DHT22;4247;48.550;8.822;2023-02-28T01:21:29;-2.10;97.30
8420;DHT22;4247;48.550;8.822;2023-02-28T01:23:57;-2.20;97.40
8420;DHT22;4247;48.550;8.822;2023-02-28T01:26:24;-2.30;97.60
8420;DHT22;4247;48.550;8.822;2023-02-28T01:28:52;-2.30;97.70
8420;DHT22;4247;48.550;8.822;2023-02-28T01:31:20;-2.30;97.90
8420;DHT22;4247;48.550;8.822;2023-02-28T01:33:47;-2.40;98.10
8420;DHT22;4247;48.550;8.822;2023-02-28T01:36:16;-2.40;98.20
8420;DHT22;4247;48.550;8.822;2023-02-28T01:38:44;-2.50;98.30
8420;DHT22;4247;48.550;8.822;2023-02-28T01:41:15;-2.50;98.40
8420;DHT22;4247;48.550;8.822;2023-02-28T01:43:57;-2.50;98.60
8420;DHT22;4247;48.550;8.822;2023-02-28T01:46:25;-2.50;98.70
8420;DHT22;4247;48.550;8.822;2023-02-28T01:48:54;-2.50;98.80
8420;DHT22;4247;48.550;8.822;2023-02-28T01:51:29;-2.50;98.90
8420;DHT22;4247;48.550;8.822;2023-02-28T01:54:01;-2.50;99.10
8420;DHT22;4247;48.550;8.822;2023-02-28T01:56:30;-2.50;99.10
8420;DHT22;4247;48.550;8.822;2023-02-28T01:58:59;-2.50;99.20
8420;DHT22;4247;48.550;8.822;2023-02-28T02:01:27;-2.50;99.20
8420;DHT22;4247;48.550;8.822;2023-02-28T02:03:55;-2.50;99.30
8420;DHT22;4247;48.550;8.822;2023-02-28T02:06:26;-2.50;99.40
8420;DHT22;4247;48.550;8.822;2023-02-28T02:08:54;-2.50;99.50
8420;DHT22;4247;48.550;8.822;2023-02-28T02:11:31;-2.50;99.60
8420;DHT22;4247;48.550;8.822;2023-02-28T02:14:14;-2.50;99.60
8420;DHT22;4247;48.550;8.822;2023-02-28T02:16:53;-2.50;99.60
8420;DHT22;4247;48.550;8.822;2023-02-28T02:19:52;-2.50;99.80
8420;DHT22;4247;48.550;8.822;2023-02-28T02:22:49;-2.50;99.90
8420;DHT22;4247;48.550;8.822;2023-02-28T02:25:28;-2.50;99.90
8420;DHT22;4247;48.550;8.822;2023-02-28T02:28:22;-2.60;99.90
8420;DHT22;4247;48.550;8.822;2023-02-28T02:31:18;-2.60;99.90
8420;DHT22;4247;48.550;8.822;2023-02-28T02:34:09;-2.60;99.90
8420;DHT22;4247;48.550;8.822;2023-02-28T02:36:45;-2.60;99.90
8420;DHT22;4247;48.550;8.822;2023-02-28T02:39:17;-2.70;99.90
8420;DHT22;4247;48.550;8.822;2023-02-28T02:41:49;-2.70;99.90
8420;DHT22;4247;48.550;8.822;2023-02-28T02:44:21;-2.70;99.90
8420;DHT22;4247;48.550;8.822;2023-02-28T02:46:51;-2.70;99.90
8420;DHT22;4247;48.550;8.822;2023-02-28T02:49:24;-2.70;99.90
8420;DHT22;4247;48.550;8.822;2023-02-28T02:51:53;-2.70;99.90
8420;DHT22;4247;48.550;8.822;2023-02-28T02:54:23;-2.70;99.90
8420;DHT22;4247;48.550;8.822;2023-02-28T02:56:56;-2.70;99.90
8420;DHT22;4247;48.550;8.822;2023-02-28T02:59:25;-2.70;99.90
8420;DHT22;4247;48.550;8.822;2023-02-28T03:01:55;-2.70;99.90
8420;DHT22;4247;48.550;8.822;2023-02-28T03:04:28;-2.70;99.90
8420;DHT22;4247;48.550;8.822;2023-02-28T03:06:57;-2.70;99.90
8420;DHT22;4247;48.550;8.822;2023-02-28T03:09:25;-2.70;99.90
8420;DHT22;4247;48.550;8.822;2023-02-28T03:11:55;-2.70;99.90
8420;DHT22;4247;48.550;8.822;2023-02-28T03:14:30;-2.70;99.90
8420;DHT22;4247;48.550;8.822;2023-02-28T03:17:31;-2.70;99.90
8420;DHT22;4247;48.550;8.822;2023-02-28T03:20:10;-2.70;99.90
8420;DHT22;4247;48.550;8.822;2023-02-28T03:22:46;-2.70;99.90
8420;DHT22;4247;48.550;8.822;2023-02-28T03:25:22;-2.70;99.90
8420;DHT22;4247;48.550;8.822;2023-02-28T03:27:57;-2.70;99.90
8420;DHT22;4247;48.550;8.822;2023-02-28T03:30:29;-2.70;99.90
8420;DHT22;4247;48.550;8.822;2023-02-28T03:33:03;-2.70;99.90
8420;DHT22;4247;48.550;8.822;2023-02-28T03:35:36;-2.70;99.90
8420;DHT22;4247;48.550;8.822;2023-02-28T03:38:06;-2.60;99.90
8420;DHT22;4247;48.550;8.822;2023-02-28T03:40:37;-2.60;99.90
8420;DHT22;4247;48.550;8.822;2023-02-28T03:43:09;-2.50;99.90
8420;DHT22;4247;48.550;8.822;2023-02-28T03:45:39;-2.50;99.90
8420;DHT22;4247;48.550;8.822;2023-02-28T03:48:11;-2.50;99.90
8420;DHT22;4247;48.550;8.822;2023-02-28T03:50:42;-2.50;99.90
8420;DHT22;4247;48.550;8.822;2023-02-28T03:53:12;-2.50;99.90
8420;DHT22;4247;48.550;8.822;2023-02-28T03:55:43;-2.50;99.90
8420;DHT22;4247;48.550;8.822;2023-02-28T03:58:15;-2.50;99.90
8420;DHT22;4247;48.550;8.822;2023-02-28T04:00:46;-2.40;99.90
8420;DHT22;4247;48.550;8.822;2023-02-28T04:03:13;-2.40;99.90
8420;DHT22;4247;48.550;8.822;2023-02-28T04:05:51;-2.40;99.90
8420;DHT22;4247;48.550;8.822;2023-02-28T04:08:18;-2.40;99.90
8420;DHT22;4247;48.550;8.822;2023-02-28T04:10:50;-2.40;99.90
8420;DHT22;4247;48.550;8.822;2023-02-28T04:13:17;-2.40;99.90
8420;DHT22;4247;48.550;8.822;2023-02-28T04:15:44;-2.40;99.90
8420;DHT22;4247;48.550;8.822;2023-02-28T04:18:11;-2.30;99.90
8420;DHT22;4247;48.550;8.822;2023-02-28T04:20:37;-2.30;99.90
8420;DHT22;4247;48.550;8.822;2023-02-28T04:23:05;-2.30;99.90
8420;DHT22;4247;48.550;8.822;2023-02-28T04:25:32;-2.30;99.90
8420;DHT22;4247;48.550;8.822;2023-02-28T04:27:59;-2.40;99.90
8420;DHT22;4247;48.550;8.822;2023-02-28T04:30:25;-2.40;99.90
8420;DHT22;4247;48.550;8.822;2023-02-28T04:32:52;-2.30;99.90
8420;DHT22;4247;48.550;8.822;2023-02-28T04:35:19;-2.30;99.90
8420;DHT22;4247;48.550;8.822;2023-02-28T04:37:45;-2.30;99.90
8420;DHT22;4247;48.550;8.822;2023-02-28T04:40:13;-2.30;99.90
8420;DHT22;4247;48.550;8.822;2023-02-28T04:42:40;-2.30;99.90
8420;DHT22;4247;48.550;8.822;2023-02-28T04:45:08;-2.30;99.90
8420;DHT22;4247;48.550;8.822;2023-02-28T04:47:36;-2.20;99.90
8420;DHT22;4247;48.550;8.822;2023-02-28T04:50:03;-2.30;99.90
8420;DHT22;4247;48.550;8.822;2023-02-28T04:52:30;-2.20;99.90
8420;DHT22;4247;48.550;8.822;2023-02-28T04:54:57;-2.20;99.90
8420;DHT22;4247;48.550;8.822;2023-02-28T04:57:25;-2.20;99.90
8420;DHT22;4247;48.550;8.822;2023-02-28T04:59:52;-2.20;99.90
8420;DHT22;4247;48.550;8.822;2023-02-28T05:02:19;-2.20;99.90
8420;DHT22;4247;48.550;8.822;2023-02-28T05:04:46;-2.20;99.90
8420;DHT22;4247;48.550;8.822;2023-02-28T05:07:13;-2.20;99.90
8420;DHT22;4247;48.550;8.822;2023-02-28T05:09:40;-2.20;99.90
8420;DHT22;4247;48.550;8.822;2023-02-28T05:12:08;-2.20;99.90
8420;DHT22;4247;48.550;8.822;2023-02-28T05:14:36;-2.10;99.90
8420;DHT22;4247;48.550;8.822;2023-02-28T05:17:03;-2.10;99.90
8420;DHT22;4247;48.550;8.822;2023-02-28T05:19:30;-2.20;99.90
8420;DHT22;4247;48.550;8.822;2023-02-28T05:21:57;-2.20;99.90
8420;DHT22;4247;48.550;8.822;2023-02-28T05:24:23;-2.20;99.90
8420;DHT22;4247;48.550;8.822;2023-02-28T05:26:52;-2.10;99.90
8420;DHT22;4247;48.550;8.822;2023-02-28T05:29:19;-2.10;99.90
8420;DHT22;4247;48.550;8.822;2023-02-28T05:31:47;-2.20;99.90
8420;DHT22;4247;48.550;8.822;2023-02-28T05:34:14;-2.20;99.90
8420;DHT22;4247;48.550;8.822;2023-02-28T05:36:41;-2.20;99.90
8420;DHT22;4247;48.550;8.822;2023-02-28T05:39:08;-2.20;99.90
8420;DHT22;4247;48.550;8.822;2023-02-28T05:41:39;-2.10;99.90
8420;DHT22;4247;48.550;8.822;2023-02-28T05:44:06;-2.10;99.90
8420;DHT22;4247;48.550;8.822;2023-02-28T05:46:33;-2.10;99.90
8420;DHT22;4247;48.550;8.822;2023-02-28T05:49:01;-2.20;99.90
8420;DHT22;4247;48.550;8.822;2023-02-28T05:51:28;-2.20;99.90
8420;DHT22;4247;48.550;8.822;2023-02-28T05:53:58;-2.10;99.90
8420;DHT22;4247;48.550;8.822;2023-02-28T05:56:25;-2.10;99.90
8420;DHT22;4247;48.550;8.822;2023-02-28T05:58:52;-2.20;99.90
8420;DHT22;4247;48.550;8.822;2023-02-28T06:01:24;-2.20;99.90
8420;DHT22;4247;48.550;8.822;2023-02-28T06:03:50;-2.20;99.90
8420;DHT22;4247;48.550;8.822;2023-02-28T06:06:18;-2.20;99.90
8420;DHT22;4247;48.550;8.822;2023-02-28T06:08:45;-2.10;99.90
8420;DHT22;4247;48.550;8.822;2023-02-28T06:11:12;-2.20;99.90
8420;DHT22;4247;48.550;8.822;2023-02-28T06:13:39;-2.20;99.90
8420;DHT22;4247;48.550;8.822;2023-02-28T06:16:07;-2.10;99.90
8420;DHT22;4247;48.550;8.822;2023-02-28T06:18:34;-2.10;99.90
8420;DHT22;4247;48.550;8.822;2023-02-28T06:21:01;-2.10;99.90
8420;DHT22;4247;48.550;8.822;2023-02-28T06:23:29;-2.10;99.90
8420;DHT22;4247;48.550;8.822;2023-02-28T06:25:56;-2.10;99.90
8420;DHT22;4247;48.550;8.822;2023-02-28T06:28:24;-2.10;99.90
8420;DHT22;4247;48.550;8.822;2023-02-28T06:30:50;-2.10;99.90
8420;DHT22;4247;48.550;8.822;2023-02-28T06:33:17;-2.10;99.90
8420;DHT22;4247;48.550;8.822;2023-02-28T06:35:44;-2.10;99.90
8420;DHT22;4247;48.550;8.822;2023-02-28T06:38:12;-2.10;99.90
8420;DHT22;4247;48.550;8.822;2023-02-28T06:40:40;-2.10;99.90
8420;DHT22;4247;48.550;8.822;2023-02-28T06:43:07;-2.10;99.90
8420;DHT22;4247;48.550;8.822;2023-02-28T06:45:33;-2.10;99.90
8420;DHT22;4247;48.550;8.822;2023-02-28T06:48:00;-2.10;99.90
8420;DHT22;4247;48.550;8.822;2023-02-28T06:50:27;-2.10;99.90
8420;DHT22;4247;48.550;8.822;2023-02-28T06:52:55;-2.10;99.90
8420;DHT22;4247;48.550;8.822;2023-02-28T06:55:21;-2.10;99.90
8420;DHT22;4247;48.550;8.822;2023-02-28T06:57:49;-2.00;99.90
8420;DHT22;4247;48.550;8.822;2023-02-28T07:00:17;-2.00;99.90
8420;DHT22;4247;48.550;8.822;2023-02-28T07:02:44;-2.00;99.90
8420;DHT22;4247;48.550;8.822;2023-02-28T07:05:10;-2.00;99.90
8420;DHT22;4247;48.550;8.822;2023-02-28T07:07:37;-1.90;99.90
8420;DHT22;4247;48.550;8.822;2023-02-28T07:10:06;-1.90;99.90
8420;DHT22;4247;48.550;8.822;2023-02-28T07:12:33;-1.90;99.90
8420;DHT22;4247;48.550;8.822;2023-02-28T07:15:01;-1.90;99.90
8420;DHT22;4247;48.550;8.822;2023-02-28T07:17:28;-1.80;99.90
8420;DHT22;4247;48.550;8.822;2023-02-28T07:19:55;-1.80;99.90
8420;DHT22;4247;48.550;8.822;2023-02-28T07:22:21;-1.70;99.90
8420;DHT22;4247;48.550;8.822;2023-02-28T07:24:48;-1.80;99.90
8420;DHT22;4247;48.550;8.822;2023-02-28T07:27:15;-1.70;99.90
8420;DHT22;4247;48.550;8.822;2023-02-28T07:29:49;-1.70;99.90
8420;DHT22;4247;48.550;8.822;2023-02-28T07:32:17;-1.70;99.90
8420;DHT22;4247;48.550;8.822;2023-02-28T07:34:43;-1.70;99.90
8420;DHT22;4247;48.550;8.822;2023-02-28T07:37:11;-1.60;99.90
8420;DHT22;4247;48.550;8.822;2023-02-28T07:39:37;-1.60;99.90
8420;DHT22;4247;48.550;8.822;2023-02-28T07:42:04;-1.60;99.90
8420;DHT22;4247;48.550;8.822;2023-02-28T07:44:31;-1.60;99.90
8420;DHT22;4247;48.550;8.822;2023-02-28T07:46:58;-1.60;99.90
8420;DHT22;4247;48.550;8.822;2023-02-28T07:49:26;-1.50;99.90
8420;DHT22;4247;48.550;8.822;2023-02-28T07:51:52;-1.50;99.90
8420;DHT22;4247;48.550;8.822;2023-02-28T07:54:19;-1.50;99.90
8420;DHT22;4247;48.550;8.822;2023-02-28T07:56:46;-1.50;99.90
8420;DHT22;4247;48.550;8.822;2023-02-28T07:59:12;-1.50;99.90
8420;DHT22;4247;48.550;8.822;2023-02-28T08:01:39;-1.50;99.90
8420;DHT22;4247;48.550;8.822;2023-02-28T08:04:06;-1.50;99.90
8420;DHT22;4247;48.550;8.822;2023-02-28T08:06:34;-1.40;99.90
8420;DHT22;4247;48.550;8.822;2023-02-28T08:09:01;-1.40;99.90
8420;DHT22;4247;48.550;8.822;2023-02-28T08:11:27;-1.40;99.90
8420;DHT22;4247;48.550;8.822;2023-02-28T08:13:56;-1.30;99.90
8420;DHT22;4247;48.550;8.822;2023-02-28T08:16:23;-1.30;99.90
8420;DHT22;4247;48.550;8.822;2023-02-28T08:18:50;-1.20;99.90
8420;DHT22;4247;48.550;8.822;2023-02-28T08:21:18;-1.20;99.90
8420;DHT22;4247;48.550;8.822;2023-02-28T08:23:47;-1.20;99.90
8420;DHT22;4247;48.550;8.822;2023-02-28T08:26:14;-1.20;99.90
8420;DHT22;4247;48.550;8.822;2023-02-28T08:28:41;-1.10;99.90
8420;DHT22;4247;48.550;8.822;2023-02-28T08:31:09;-1.10;99.90
8420;DHT22;4247;48.550;8.822;2023-02-28T08:33:37;-1.10;99.90
8420;DHT22;4247;48.550;8.822;2023-02-28T08:36:05;-1.10;99.90
8420;DHT22;4247;48.550;8.822;2023-02-28T08:38:32;-1.10;99.90
8420;DHT22;4247;48.550;8.822;2023-02-28T08:41:02;-1.00;99.90
8420;DHT22;4247;48.550;8.822;2023-02-28T08:43:31;-1.10;99.90
8420;DHT22;4247;48.550;8.822;2023-02-28T08:45:58;-1.00;99.90
8420;DHT22;4247;48.550;8.822;2023-02-28T08:48:25;-1.00;99.90
8420;DHT22;4247;48.550;8.822;2023-02-28T08:50:55;-1.00;99.90
8420;DHT22;4247;48.550;8.822;2023-02-28T08:53:22;-0.90;99.90
8420;DHT22;4247;48.550;8.822;2023-02-28T08:55:56;-0.90;99.90
8420;DHT22;4247;48.550;8.822;2023-02-28T08:58:24;-0.80;99.90
8420;DHT22;4247;48.550;8.822;2023-02-28T09:00:51;-0.70;99.90
8420;DHT22;4247;48.550;8.822;2023-02-28T09:03:18;-0.80;99.90
8420;DHT22;4247;48.550;8.822;2023-02-28T09:05:52;-0.70;99.90
8420;DHT22;4247;48.550;8.822;2023-02-28T09:08:19;-0.70;99.90
8420;DHT22;4247;48.550;8.822;2023-02-28T09:10:46;-0.70;99.90
8420;DHT22;4247;48.550;8.822;2023-02-28T09:13:12;-0.70;99.90
8420;DHT22;4247;48.550;8.822;2023-02-28T09:15:40;-0.60;99.90
8420;DHT22;4247;48.550;8.822;2023-02-28T09:18:07;-0.50;99.90
8420;DHT22;4247;48.550;8.822;2023-02-28T09:20:34;-0.50;99.90
8420;DHT22;4247;48.550;8.822;2023-02-28T09:23:00;-0.50;99.90
8420;DHT22;4247;48.550;8.822;2023-02-28T09:25:27;-0.50;99.90
8420;DHT22;4247;48.550;8.822;2023-02-28T09:27:54;-0.50;99.90
8420;DHT22;4247;48.550;8.822;2023-02-28T09:30:20;-0.50;99.90
8420;DHT22;4247;48.550;8.822;2023-02-28T09:32:48;-0.50;99.90
8420;DHT22;4247;48.550;8.822;2023-02-28T09:35:17;-0.40;99.90
8420;DHT22;4247;48.550;8.822;2023-02-28T09:37:44;-0.30;99.90
8420;DHT22;4247;48.550;8.822;2023-02-28T09:40:12;-0.40;99.90
8420;DHT22;4247;48.550;8.822;2023-02-28T09:42:40;-0.30;99.90
8420;DHT22;4247;48.550;8.822;2023-02-28T09:45:15;-0.20;99.90
8420;DHT22;4247;48.550;8.822;2023-02-28T09:47:49;-0.20;99.90
8420;DHT22;4247;48.550;8.822;2023-02-28T09:50:20;-0.20;99.90
8420;DHT22;4247;48.550;8.822;2023-02-28T09:52:49;-0.10;99.90
8420;DHT22;4247;48.550;8.822;2023-02-28T09:55:21;-0.10;99.90
8420;DHT22;4247;48.550;8.822;2023-02-28T09:57:50;0.00;99.90
8420;DHT22;4247;48.550;8.822;2023-02-28T10:00:19;0.00;99.90
8420;DHT22;4247;48.550;8.822;2023-02-28T10:03:17;-0.10;99.90
8420;DHT22;4247;48.550;8.822;2023-02-28T10:05:51;0.00;99.90
8420;DHT22;4247;48.550;8.822;2023-02-28T10:08:22;0.00;99.90
8420;DHT22;4247;48.550;8.822;2023-02-28T10:10:53;0.00;99.90
8420;DHT22;4247;48.550;8.822;2023-02-28T10:13:25;0.10;99.90
8420;DHT22;4247;48.550;8.822;2023-02-28T10:15:56;0.10;99.90
8420;DHT22;4247;48.550;8.822;2023-02-28T10:18:30;0.10;99.90
8420;DHT22;4247;48.550;8.822;2023-02-28T10:20:57;0.20;99.90
8420;DHT22;4247;48.550;8.822;2023-02-28T10:23:28;0.30;99.90
8420;DHT22;4247;48.550;8.822;2023-02-28T10:26:00;0.40;99.90
8420;DHT22;4247;48.550;8.822;2023-02-28T10:28:29;0.40;99.90
8420;DHT22;4247;48.550;8.822;2023-02-28T10:30:56;0.40;99.90
8420;DHT22;4247;48.550;8.822;2023-02-28T10:33:28;0.50;99.90
8420;DHT22;4247;48.550;8.822;2023-02-28T10:35:55;0.50;99.90
8420;DHT22;4247;48.550;8.822;2023-02-28T10:38:24;0.50;99.80
8420;DHT22;4247;48.550;8.822;2023-02-28T10:40:51;0.60;99.90
8420;DHT22;4247;48.550;8.822;2023-02-28T10:43:29;0.60;99.60
8420;DHT22;4247;48.550;8.822;2023-02-28T10:45:58;0.60;99.20
8420;DHT22;4247;48.550;8.822;2023-02-28T10:48:32;0.70;99.40
8420;DHT22;4247;48.550;8.822;2023-02-28T10:50:59;0.80;99.40
8420;DHT22;4247;48.550;8.822;2023-02-28T10:53:36;0.90;99.30
8420;DHT22;4247;48.550;8.822;2023-02-28T10:56:06;0.90;99.40
8420;DHT22;4247;48.550;8.822;2023-02-28T10:58:46;1.10;98.90
8420;DHT22;4247;48.550;8.822;2023-02-28T11:01:15;1.20;99.30
8420;DHT22;4247;48.550;8.822;2023-02-28T11:03:43;1.30;98.20
8420;DHT22;4247;48.550;8.822;2023-02-28T11:06:16;1.30;97.60
8420;DHT22;4247;48.550;8.822;2023-02-28T11:08:45;1.30;97.60
8420;DHT22;4247;48.550;8.822;2023-02-28T11:11:13;1.30;98.00
8420;DHT22;4247;48.550;8.822;2023-02-28T11:13:40;1.40;97.90
8420;DHT22;4247;48.550;8.822;2023-02-28T11:16:09;1.40;97.40
8420;DHT22;4247;48.550;8.822;2023-02-28T11:18:40;1.50;97.40
8420;DHT22;4247;48.550;8.822;2023-02-28T11:21:16;1.50;97.30
8420;DHT22;4247;48.550;8.822;2023-02-28T11:23:43;1.50;96.80
8420;DHT22;4247;48.550;8.822;2023-02-28T11:26:10;1.50;96.60
8420;DHT22;4247;48.550;8.822;2023-02-28T11:28:39;1.50;97.00
8420;DHT22;4247;48.550;8.822;2023-02-28T11:31:16;1.60;96.80
8420;DHT22;4247;48.550;8.822;2023-02-28T11:33:46;1.50;96.50
8420;DHT22;4247;48.550;8.822;2023-02-28T11:36:19;1.60;96.70
8420;DHT22;4247;48.550;8.822;2023-02-28T11:38:47;1.70;96.70
8420;DHT22;4247;48.550;8.822;2023-02-28T11:41:26;1.70;96.70
8420;DHT22;4247;48.550;8.822;2023-02-28T11:44:03;1.90;97.00
8420;DHT22;4247;48.550;8.822;2023-02-28T11:46:37;1.90;96.40
8420;DHT22;4247;48.550;8.822;2023-02-28T11:49:17;1.90;96.00
8420;DHT22;4247;48.550;8.822;2023-02-28T11:51:53;1.90;95.90
8420;DHT22;4247;48.550;8.822;2023-02-28T11:54:30;2.00;96.30
8420;DHT22;4247;48.550;8.822;2023-02-28T11:57:03;2.00;95.60
8420;DHT22;4247;48.550;8.822;2023-02-28T11:59:46;2.00;95.80
8420;DHT22;4247;48.550;8.822;2023-02-28T12:02:23;2.00;95.80
8420;DHT22;4247;48.550;8.822;2023-02-28T12:05:04;1.90;96.10
8420;DHT22;4247;48.550;8.822;2023-02-28T12:07:43;2.00;95.60
8420;DHT22;4247;48.550;8.822;2023-02-28T12:10:21;2.00;95.90
8420;DHT22;4247;48.550;8.822;2023-02-28T12:12:55;2.10;95.40
8420;DHT22;4247;48.550;8.822;2023-02-28T12:15:41;2.00;95.60
8420;DHT22;4247;48.550;8.822;2023-02-28T12:18:26;2.00;95.60
8420;DHT22;4247;48.550;8.822;2023-02-28T12:21:02;1.90;95.30
8420;DHT22;4247;48.550;8.822;2023-02-28T12:23:54;1.90;95.60
8420;DHT22;4247;48.550;8.822;2023-02-28T12:26:28;1.90;95.70
8420;DHT22;4247;48.550;8.822;2023-02-28T12:29:01;1.90;95.70
8420;DHT22;4247;48.550;8.822;2023-02-28T12:31:30;1.90;95.90
8420;DHT22;4247;48.550;8.822;2023-02-28T12:34:03;1.90;96.10
8420;DHT22;4247;48.550;8.822;2023-02-28T12:36:31;2.00;96.40
8420;DHT22;4247;48.550;8.822;2023-02-28T12:39:04;2.00;96.20
8420;DHT22;4247;48.550;8.822;2023-02-28T12:41:36;2.20;96.30
8420;DHT22;4247;48.550;8.822;2023-02-28T12:44:09;2.20;95.60
8420;DHT22;4247;48.550;8.822;2023-02-28T12:46:42;2.40;96.30
8420;DHT22;4247;48.550;8.822;2023-02-28T12:49:14;2.50;96.40
8420;DHT22;4247;48.550;8.822;2023-02-28T12:51:42;2.50;95.10
8420;DHT22;4247;48.550;8.822;2023-02-28T12:54:21;2.60;96.30
8420;DHT22;4247;48.550;8.822;2023-02-28T12:56:56;2.60;95.30
8420;DHT22;4247;48.550;8.822;2023-02-28T12:59:27;2.50;94.80
8420;DHT22;4247;48.550;8.822;2023-02-28T13:02:28;2.50;95.40
8420;DHT22;4247;48.550;8.822;2023-02-28T13:11:02;2.60;95.10
8420;DHT22;4247;48.550;8.822;2023-02-28T13:13:30;2.80;95.10
8420;DHT22;4247;48.550;8.822;2023-02-28T13:16:05;2.90;95.30
8420;DHT22;4247;48.550;8.822;2023-02-28T13:18:35;3.00;95.60
8420;DHT22;4247;48.550;8.822;2023-02-28T13:21:04;3.00;95.40
8420;DHT22;4247;48.550;8.822;2023-02-28T13:23:58;2.90;95.10
8420;DHT22;4247;48.550;8.822;2023-02-28T13:29:32;2.80;94.50
8420;DHT22;4247;48.550;8.822;2023-02-28T13:32:28;2.80;94.50
8420;DHT22;4247;48.550;8.822;2023-02-28T13:38:17;2.70;94.50
8420;DHT22;4247;48.550;8.822;2023-02-28T13:40:44;2.70;94.60
8420;DHT22;4247;48.550;8.822;2023-02-28T13:43:10;2.70;94.40
8420;DHT22;4247;48.550;8.822;2023-02-28T13:45:38;2.70;94.70
8420;DHT22;4247;48.550;8.822;2023-02-28T13:48:24;2.70;95.00
8420;DHT22;4247;48.550;8.822;2023-02-28T13:50:52;2.60;94.80
8420;DHT22;4247;48.550;8.822;2023-02-28T13:56:41;2.70;95.10
8420;DHT22;4247;48.550;8.822;2023-02-28T13:59:21;2.70;95.10
8420;DHT22;4247;48.550;8.822;2023-02-28T14:02:03;2.70;94.70
8420;DHT22;4247;48.550;8.822;2023-02-28T14:04:46;2.70;95.10
8420;DHT22;4247;48.550;8.822;2023-02-28T14:07:18;2.70;95.50
8420;DHT22;4247;48.550;8.822;2023-02-28T14:09:52;2.80;95.70
8420;DHT22;4247;48.550;8.822;2023-02-28T14:15:43;2.90;95.00
8420;DHT22;4247;48.550;8.822;2023-02-28T14:18:19;2.90;94.80
8420;DHT22;4247;48.550;8.822;2023-02-28T14:20:47;3.00;95.00
8420;DHT22;4247;48.550;8.822;2023-02-28T14:23:22;2.90;94.30
8420;DHT22;4247;48.550;8.822;2023-02-28T14:26:00;2.90;94.80
8420;DHT22;4247;48.550;8.822;2023-02-28T14:28:44;2.90;94.70
8420;DHT22;4247;48.550;8.822;2023-02-28T14:31:18;2.90;94.80
8420;DHT22;4247;48.550;8.822;2023-02-28T14:34:11;2.90;94.70
8420;DHT22;4247;48.550;8.822;2023-02-28T14:36:41;2.90;94.40
8420;DHT22;4247;48.550;8.822;2023-02-28T14:39:13;2.80;94.80
8420;DHT22;4247;48.550;8.822;2023-02-28T14:41:42;2.80;94.60
8420;DHT22;4247;48.550;8.822;2023-02-28T14:44:16;2.90;94.70
8420;DHT22;4247;48.550;8.822;2023-02-28T14:46:45;2.90;94.70
8420;DHT22;4247;48.550;8.822;2023-02-28T14:49:18;2.90;94.80
8420;DHT22;4247;48.550;8.822;2023-02-28T14:51:45;3.00;94.90
8420;DHT22;4247;48.550;8.822;2023-02-28T14:54:15;3.00;94.60
8420;DHT22;4247;48.550;8.822;2023-02-28T14:56:42;3.00;94.60
8420;DHT22;4247;48.550;8.822;2023-02-28T14:59:25;3.00;94.50
8420;DHT22;4247;48.550;8.822;2023-02-28T15:04:36;2.90;94.50
8420;DHT22;4247;48.550;8.822;2023-02-28T15:07:09;3.00;94.80
8420;DHT22;4247;48.550;8.822;2023-02-28T15:09:36;3.00;94.70
8420;DHT22;4247;48.550;8.822;2023-02-28T15:12:03;3.00;94.80
8420;DHT22;4247;48.550;8.822;2023-02-28T15:14:31;3.00;94.90
8420;DHT22;4247;48.550;8.822;2023-02-28T15:17:02;3.10;94.90
8420;DHT22;4247;48.550;8.822;2023-02-28T15:19:32;3.10;94.90
8420;DHT22;4247;48.550;8.822;2023-02-28T15:22:03;3.10;94.80
8420;DHT22;4247;48.550;8.822;2023-02-28T15:24:36;3.10;94.50
8420;DHT22;4247;48.550;8.822;2023-02-28T15:27:05;3.10;94.30
8420;DHT22;4247;48.550;8.822;2023-02-28T15:29:42;3.10;94.30
8420;DHT22;4247;48.550;8.822;2023-02-28T15:32:27;3.10;94.60
8420;DHT22;4247;48.550;8.822;2023-02-28T15:34:55;3.10;94.60
8420;DHT22;4247;48.550;8.822;2023-02-28T15:37:29;3.10;94.30
8420;DHT22;4247;48.550;8.822;2023-02-28T15:39:58;3.10;94.10
8420;DHT22;4247;48.550;8.822;2023-02-28T15:42:28;3.10;94.50
8420;DHT22;4247;48.550;8.822;2023-02-28T15:44:55;3.10;94.60
8420;DHT22;4247;48.550;8.822;2023-02-28T15:47:24;3.10;94.60
8420;DHT22;4247;48.550;8.822;2023-02-28T15:49:53;3.10;94.30
8420;DHT22;4247;48.550;8.822;2023-02-28T15:52:22;3.10;94.40
8420;DHT22;4247;48.550;8.822;2023-02-28T15:54:52;3.10;94.30
8420;DHT22;4247;48.550;8.822;2023-02-28T15:57:21;3.10;94.30
8420;DHT22;4247;48.550;8.822;2023-02-28T15:59:53;3.10;94.30
8420;DHT22;4247;48.550;8.822;2023-02-28T16:02:25;3.10;94.20
8420;DHT22;4247;48.550;8.822;2023-02-28T16:04:59;3.10;94.40
8420;DHT22;4247;48.550;8.822;2023-02-28T16:07:27;3.10;94.60
8420;DHT22;4247;48.550;8.822;2023-02-28T16:09:55;3.10;94.60
8420;DHT22;4247;48.550;8.822;2023-02-28T16:12:26;3.10;94.60
8420;DHT22;4247;48.550;8.822;2023-02-28T16:14:54;3.10;94.50
8420;DHT22;4247;48.550;8.822;2023-02-28T16:17:23;3.10;94.70
8420;DHT22;4247;48.550;8.822;2023-02-28T16:19:51;3.10;94.40
8420;DHT22;4247;48.550;8.822;2023-02-28T16:22:18;3.10;94.60
8420;DHT22;4247;48.550;8.822;2023-02-28T16:24:44;3.10;94.70
8420;DHT22;4247;48.550;8.822;2023-02-28T16:27:18;3.00;94.50
8420;DHT22;4247;48.550;8.822;2023-02-28T16:29:46;3.00;94.60
8420;DHT22;4247;48.550;8.822;2023-02-28T16:32:15;3.00;94.70
8420;DHT22;4247;48.550;8.822;2023-02-28T16:34:42;3.00;94.70
8420;DHT22;4247;48.550;8.822;2023-02-28T16:37:14;3.00;94.80
8420;DHT22;4247;48.550;8.822;2023-02-28T16:39:41;2.90;95.00
8420;DHT22;4247;48.550;8.822;2023-02-28T16:42:11;2.90;94.80
8420;DHT22;4247;48.550;8.822;2023-02-28T16:44:42;2.90;95.00
8420;DHT22;4247;48.550;8.822;2023-02-28T16:47:10;2.80;95.00
8420;DHT22;4247;48.550;8.822;2023-02-28T16:49:37;2.80;95.20